Dunkirk, Ohio
Current Conditions -  °F | °C
As of 12:53 AM on Friday 28 Nov 2014 (Local Time) from KFDY Reporting Station
Overcast Overcast  
Wind Chill: 19°   Ceiling: 2200
Heat Index: 27°   Visibility: 10mi
Dew Point: 18°   Wind: 7mph
Humidity: 69%   Direction: 300°WNW
Pressure: 30.32"   Gusts: NA
Location:  40.79°N, 83.64°W
Report Text: KFDY 280553Z AUTO 30006KT 10SM BKN022 OVC055 M03/M08 A3032 RMK AO2 SLP271 60000 T10281078 11006 21033 50005
Loading
Personal Weather Stations






























Interactive Weather Map New forecast layout! Learn more

10-Day Weather Forecast

Advertisements
Track Severe Weather on mobile